sensor_id;sensor_type;location;lat;lon;timestamp;pressure;altitude;pressure_sealevel;temperature;humidity
28665;BME280;15850;47.524;7.814;2022-08-11T00:02:26;97983.59;;;18.05;55.04
28665;BME280;15850;47.524;7.814;2022-08-11T00:04:53;97651.22;;;15.76;55.34
28665;BME280;15850;47.524;7.814;2022-08-11T00:07:20;97987.19;;;17.72;55.96
28665;BME280;15850;47.524;7.814;2022-08-11T00:09:47;97848.56;;;16.75;55.79
28665;BME280;15850;47.524;7.814;2022-08-11T00:12:15;97980.16;;;17.44;57.03
28665;BME280;15850;47.524;7.814;2022-08-11T00:14:42;97879.84;;;16.97;56.64
28665;BME280;15850;47.524;7.814;2022-08-11T00:17:10;97979.13;;;17.56;56.32
28665;BME280;15850;47.524;7.814;2022-08-11T00:19:41;97994.09;;;17.58;55.02
28665;BME280;15850;47.524;7.814;2022-08-11T00:22:09;97979.38;;;17.44;56.54
28665;BME280;15850;47.524;7.814;2022-08-11T00:24:37;97967.50;;;17.36;56.91
28665;BME280;15850;47.524;7.814;2022-08-11T00:27:04;97883.56;;;16.82;58.15
28665;BME280;15850;47.524;7.814;2022-08-11T00:29:30;97978.34;;;17.55;56.38
28665;BME280;15850;47.524;7.814;2022-08-11T00:32:00;97967.50;;;17.36;56.81
28665;BME280;15850;47.524;7.814;2022-08-11T00:34:28;97966.97;;;17.23;57.89
28665;BME280;15850;47.524;7.814;2022-08-11T00:36:59;97972.56;;;17.00;58.43
28665;BME280;15850;47.524;7.814;2022-08-11T00:39:26;97979.31;;;17.06;58.25
28665;BME280;15850;47.524;7.814;2022-08-11T00:42:06;97975.41;;;17.07;57.82
28665;BME280;15850;47.524;7.814;2022-08-11T00:44:41;97873.16;;;16.38;58.47
28665;BME280;15850;47.524;7.814;2022-08-11T00:47:17;97703.91;;;15.39;57.54
28665;BME280;15850;47.524;7.814;2022-08-11T00:49:58;97957.97;;;16.96;58.26
28665;BME280;15850;47.524;7.814;2022-08-11T00:52:43;97973.88;;;17.10;57.37
28665;BME280;15850;47.524;7.814;2022-08-11T00:59:03;97852.91;;;16.19;59.05
28665;BME280;15850;47.524;7.814;2022-08-11T01:01:42;97971.25;;;16.90;59.33
28665;BME280;15850;47.524;7.814;2022-08-11T01:04:30;97955.28;;;16.73;59.29
28665;BME280;15850;47.524;7.814;2022-08-11T01:07:27;97878.81;;;16.22;59.06
28665;BME280;15850;47.524;7.814;2022-08-11T01:10:10;97972.03;;;16.91;58.95
28665;BME280;15850;47.524;7.814;2022-08-11T01:12:55;97878.16;;;16.32;59.37
28665;BME280;15850;47.524;7.814;2022-08-11T01:15:48;97951.13;;;16.56;60.31
28665;BME280;15850;47.524;7.814;2022-08-11T01:24:51;97956.47;;;16.23;64.44
28665;BME280;15850;47.524;7.814;2022-08-11T01:27:52;97964.75;;;16.49;61.22
28665;BME280;15850;47.524;7.814;2022-08-11T01:43:20;97978.97;;;16.32;62.17
28665;BME280;15850;47.524;7.814;2022-08-11T01:45:55;97979.53;;;16.18;63.85
28665;BME280;15850;47.524;7.814;2022-08-11T01:48:33;97978.56;;;16.07;63.82
28665;BME280;15850;47.524;7.814;2022-08-11T01:51:11;97579.88;;;13.62;62.24
28665;BME280;15850;47.524;7.814;2022-08-11T01:53:47;97966.75;;;16.03;62.72
28665;BME280;15850;47.524;7.814;2022-08-11T01:56:27;97925.28;;;15.65;63.95
28665;BME280;15850;47.524;7.814;2022-08-11T01:59:01;97979.06;;;15.89;63.92
28665;BME280;15850;47.524;7.814;2022-08-11T02:01:44;97969.09;;;16.04;64.39
28665;BME280;15850;47.524;7.814;2022-08-11T02:04:19;97973.03;;;16.03;64.74
28665;BME280;15850;47.524;7.814;2022-08-11T02:06:49;97928.59;;;15.74;64.04
28665;BME280;15850;47.524;7.814;2022-08-11T02:09:27;97860.00;;;15.28;65.22
28665;BME280;15850;47.524;7.814;2022-08-11T02:12:08;97970.47;;;15.71;65.37
28665;BME280;15850;47.524;7.814;2022-08-11T02:14:42;97948.34;;;15.41;67.00
28665;BME280;15850;47.524;7.814;2022-08-11T02:17:15;97968.06;;;15.66;66.45
28665;BME280;15850;47.524;7.814;2022-08-11T02:19:51;97967.00;;;15.55;67.14
28665;BME280;15850;47.524;7.814;2022-08-11T02:22:27;97944.50;;;15.46;66.31
28665;BME280;15850;47.524;7.814;2022-08-11T02:24:59;97968.03;;;15.47;68.57
28665;BME280;15850;47.524;7.814;2022-08-11T02:27:36;97900.91;;;14.98;67.83
28665;BME280;15850;47.524;7.814;2022-08-11T02:30:06;97961.91;;;15.54;68.09
28665;BME280;15850;47.524;7.814;2022-08-11T02:32:35;97958.78;;;15.55;67.34
28665;BME280;15850;47.524;7.814;2022-08-11T02:35:12;97965.44;;;15.54;67.40
28665;BME280;15850;47.524;7.814;2022-08-11T02:37:47;97964.00;;;15.60;67.49
28665;BME280;15850;47.524;7.814;2022-08-11T02:40:20;97960.06;;;15.61;67.21
28665;BME280;15850;47.524;7.814;2022-08-11T02:43:05;97957.50;;;15.49;68.90
28665;BME280;15850;47.524;7.814;2022-08-11T02:45:47;97956.50;;;15.38;69.41
28665;BME280;15850;47.524;7.814;2022-08-11T02:48:20;97949.50;;;15.40;69.89
28665;BME280;15850;47.524;7.814;2022-08-11T02:50:57;97961.06;;;15.30;68.36
28665;BME280;15850;47.524;7.814;2022-08-11T02:53:32;97953.81;;;15.41;68.37
28665;BME280;15850;47.524;7.814;2022-08-11T02:56:07;97914.94;;;15.16;69.49
28665;BME280;15850;47.524;7.814;2022-08-11T02:58:50;97966.03;;;15.24;69.56
28665;BME280;15850;47.524;7.814;2022-08-11T03:01:27;97957.22;;;15.15;69.50
28665;BME280;15850;47.524;7.814;2022-08-11T03:04:03;97964.44;;;15.23;68.65
28665;BME280;15850;47.524;7.814;2022-08-11T03:06:38;97954.69;;;15.45;68.91
28665;BME280;15850;47.524;7.814;2022-08-11T03:09:09;97861.56;;;14.87;68.81
28665;BME280;15850;47.524;7.814;2022-08-11T03:11:48;97826.69;;;14.29;70.28
28665;BME280;15850;47.524;7.814;2022-08-11T03:14:21;97956.44;;;15.15;71.01
28665;BME280;15850;47.524;7.814;2022-08-11T03:16:52;97939.13;;;14.91;70.57
28665;BME280;15850;47.524;7.814;2022-08-11T03:19:25;97888.56;;;14.69;70.77
28665;BME280;15850;47.524;7.814;2022-08-11T03:22:01;97946.31;;;15.19;70.10
28665;BME280;15850;47.524;7.814;2022-08-11T03:24:35;97960.25;;;15.30;69.86
28665;BME280;15850;47.524;7.814;2022-08-11T03:27:07;97918.34;;;15.10;70.98
28665;BME280;15850;47.524;7.814;2022-08-11T03:29:41;97959.31;;;15.22;71.64
28665;BME280;15850;47.524;7.814;2022-08-11T03:32:21;97913.16;;;14.85;70.37
28665;BME280;15850;47.524;7.814;2022-08-11T03:34:49;97846.88;;;14.41;71.04
28665;BME280;15850;47.524;7.814;2022-08-11T03:37:26;97938.91;;;15.00;71.34
28665;BME280;15850;47.524;7.814;2022-08-11T03:40:10;97961.78;;;15.08;71.72
28665;BME280;15850;47.524;7.814;2022-08-11T03:42:42;97957.22;;;15.15;71.99
28665;BME280;15850;47.524;7.814;2022-08-11T03:45:21;97951.31;;;15.13;71.72
28665;BME280;15850;47.524;7.814;2022-08-11T03:48:08;97953.97;;;15.10;71.73
28665;BME280;15850;47.524;7.814;2022-08-11T03:50:55;97958.81;;;15.16;71.24
28665;BME280;15850;47.524;7.814;2022-08-11T03:53:48;97957.28;;;15.19;71.66
28665;BME280;15850;47.524;7.814;2022-08-11T03:56:48;97963.22;;;15.01;74.08
28665;BME280;15850;47.524;7.814;2022-08-11T03:59:42;97965.44;;;14.61;75.22
28665;BME280;15850;47.524;7.814;2022-08-11T04:02:27;97970.34;;;14.87;74.39
28665;BME280;15850;47.524;7.814;2022-08-11T04:05:33;97956.03;;;14.77;74.94
28665;BME280;15850;47.524;7.814;2022-08-11T04:08:27;97933.22;;;14.54;76.41
28665;BME280;15850;47.524;7.814;2022-08-11T04:11:16;97966.66;;;14.63;77.79
28665;BME280;15850;47.524;7.814;2022-08-11T04:17:21;97970.28;;;14.67;77.29
28665;BME280;15850;47.524;7.814;2022-08-11T04:20:12;97971.16;;;14.71;77.65
28665;BME280;15850;47.524;7.814;2022-08-11T04:23:10;97972.03;;;14.75;77.52
28665;BME280;15850;47.524;7.814;2022-08-11T04:28:59;97970.09;;;14.76;78.65
28665;BME280;15850;47.524;7.814;2022-08-11T04:31:36;97928.78;;;14.49;78.39
28665;BME280;15850;47.524;7.814;2022-08-11T04:34:35;97924.22;;;14.38;78.71
28665;BME280;15850;47.524;7.814;2022-08-11T04:37:11;97970.75;;;14.89;77.82
28665;BME280;15850;47.524;7.814;2022-08-11T04:43:14;97971.22;;;15.10;76.19
28665;BME280;15850;47.524;7.814;2022-08-11T04:49:18;97957.78;;;15.05;77.28
28665;BME280;15850;47.524;7.814;2022-08-11T04:55:01;97955.91;;;14.90;77.79
28665;BME280;15850;47.524;7.814;2022-08-11T04:57:41;97977.78;;;15.25;76.10
28665;BME280;15850;47.524;7.814;2022-08-11T05:00:13;97989.97;;;15.47;73.65
28665;BME280;15850;47.524;7.814;2022-08-11T05:06:11;97978.41;;;15.57;72.29
28665;BME280;15850;47.524;7.814;2022-08-11T05:09:11;97987.31;;;15.70;72.20
28665;BME280;15850;47.524;7.814;2022-08-11T05:11:57;97996.31;;;15.90;69.69
28665;BME280;15850;47.524;7.814;2022-08-11T05:14:28;97992.16;;;15.77;71.67
28665;BME280;15850;47.524;7.814;2022-08-11T05:16:57;97960.69;;;15.70;71.27
28665;BME280;15850;47.524;7.814;2022-08-11T05:19:24;97994.25;;;16.06;69.95
28665;BME280;15850;47.524;7.814;2022-08-11T05:21:56;97990.09;;;16.16;69.72
28665;BME280;15850;47.524;7.814;2022-08-11T05:24:25;97991.41;;;16.26;68.35
28665;BME280;15850;47.524;7.814;2022-08-11T05:26:54;97955.31;;;16.24;68.45
28665;BME280;15850;47.524;7.814;2022-08-11T05:29:27;97987.50;;;16.50;65.91
28665;BME280;15850;47.524;7.814;2022-08-11T05:32:00;97937.13;;;16.15;68.28
28665;BME280;15850;47.524;7.814;2022-08-11T05:34:28;97997.13;;;16.63;67.56
28665;BME280;15850;47.524;7.814;2022-08-11T05:37:03;97999.31;;;16.77;68.45
28665;BME280;15850;47.524;7.814;2022-08-11T05:39:40;97963.59;;;16.77;66.50
28665;BME280;15850;47.524;7.814;2022-08-11T05:42:08;97937.09;;;16.65;65.82
28665;BME280;15850;47.524;7.814;2022-08-11T05:44:35;97994.94;;;16.99;65.58
28665;BME280;15850;47.524;7.814;2022-08-11T05:47:03;97943.63;;;16.80;65.65
28665;BME280;15850;47.524;7.814;2022-08-11T05:49:31;97994.72;;;17.14;66.62
28665;BME280;15850;47.524;7.814;2022-08-11T05:51:58;97992.19;;;17.29;65.18
28665;BME280;15850;47.524;7.814;2022-08-11T05:54:26;97998.13;;;17.34;67.24
28665;BME280;15850;47.524;7.814;2022-08-11T05:56:54;97998.66;;;17.47;66.21
28665;BME280;15850;47.524;7.814;2022-08-11T05:59:22;97994.50;;;17.60;64.38
28665;BME280;15850;47.524;7.814;2022-08-11T06:01:49;97998.97;;;17.72;64.19
28665;BME280;15850;47.524;7.814;2022-08-11T06:04:18;97994.41;;;17.87;63.63
28665;BME280;15850;47.524;7.814;2022-08-11T06:06:47;98001.59;;;17.95;62.83
28665;BME280;15850;47.524;7.814;2022-08-11T06:09:14;98006.97;;;18.22;61.76
28665;BME280;15850;47.524;7.814;2022-08-11T06:11:41;97997.53;;;18.23;63.04
28665;BME280;15850;47.524;7.814;2022-08-11T06:14:09;97996.06;;;18.36;62.84
28665;BME280;15850;47.524;7.814;2022-08-11T06:16:36;97997.00;;;18.54;59.64
28665;BME280;15850;47.524;7.814;2022-08-11T06:19:02;97986.75;;;18.51;60.53
28665;BME280;15850;47.524;7.814;2022-08-11T06:21:32;97994.69;;;18.64;61.11
28665;BME280;15850;47.524;7.814;2022-08-11T06:23:58;97993.34;;;18.91;58.74
28665;BME280;15850;47.524;7.814;2022-08-11T06:26:24;98005.69;;;19.19;59.67
28665;BME280;15850;47.524;7.814;2022-08-11T06:28:50;97995.56;;;19.41;55.69
28665;BME280;15850;47.524;7.814;2022-08-11T06:31:19;97996.78;;;19.54;57.02
28665;BME280;15850;47.524;7.814;2022-08-11T06:33:53;97998.38;;;19.59;55.57
28665;BME280;15850;47.524;7.814;2022-08-11T06:36:25;97891.81;;;19.11;51.87
28665;BME280;15850;47.524;7.814;2022-08-11T06:39:01;97959.84;;;19.84;53.36
28665;BME280;15850;47.524;7.814;2022-08-11T06:41:33;97989.47;;;20.26;52.97
28665;BME280;15850;47.524;7.814;2022-08-11T06:44:08;97988.69;;;20.22;49.29
28665;BME280;15850;47.524;7.814;2022-08-11T06:46:42;97991.84;;;20.46;49.37
28665;BME280;15850;47.524;7.814;2022-08-11T06:49:09;97996.22;;;20.61;48.19
28665;BME280;15850;47.524;7.814;2022-08-11T06:51:36;97893.16;;;20.00;48.83
28665;BME280;15850;47.524;7.814;2022-08-11T06:54:02;97998.56;;;20.80;46.92
28665;BME280;15850;47.524;7.814;2022-08-11T06:56:30;98002.06;;;20.99;47.20
28665;BME280;15850;47.524;7.814;2022-08-11T06:58:58;97986.22;;;21.17;46.09
28665;BME280;15850;47.524;7.814;2022-08-11T07:01:34;97962.53;;;21.16;46.40
28665;BME280;15850;47.524;7.814;2022-08-11T07:04:07;97980.25;;;21.37;44.98
28665;BME280;15850;47.524;7.814;2022-08-11T07:06:40;98008.22;;;21.64;44.57
28665;BME280;15850;47.524;7.814;2022-08-11T07:09:32;97995.19;;;21.57;44.18
28665;BME280;15850;47.524;7.814;2022-08-11T07:15:02;97986.47;;;21.66;44.61
28665;BME280;15850;47.524;7.814;2022-08-11T07:17:34;98005.78;;;21.76;44.59
28665;BME280;15850;47.524;7.814;2022-08-11T07:20:05;97921.75;;;21.27;44.39
28665;BME280;15850;47.524;7.814;2022-08-11T07:22:31;98006.06;;;21.96;44.55
28665;BME280;15850;47.524;7.814;2022-08-11T07:25:00;97974.56;;;21.72;44.14
28665;BME280;15850;47.524;7.814;2022-08-11T07:27:30;97991.84;;;21.91;44.56
28665;BME280;15850;47.524;7.814;2022-08-11T07:30:02;97955.19;;;21.65;44.77
28665;BME280;15850;47.524;7.814;2022-08-11T07:32:32;97983.59;;;21.84;43.72
28665;BME280;15850;47.524;7.814;2022-08-11T07:35:06;97994.16;;;22.03;43.84
28665;BME280;15850;47.524;7.814;2022-08-11T07:37:33;97990.91;;;22.12;44.35
28665;BME280;15850;47.524;7.814;2022-08-11T07:39:59;97967.19;;;22.11;44.04
28665;BME280;15850;47.524;7.814;2022-08-11T07:42:29;97807.97;;;21.18;43.27
28665;BME280;15850;47.524;7.814;2022-08-11T07:44:56;97966.75;;;22.19;43.61
28665;BME280;15850;47.524;7.814;2022-08-11T07:47:22;97954.91;;;22.15;43.02
28665;BME280;15850;47.524;7.814;2022-08-11T07:49:50;97982.44;;;22.37;43.28
28665;BME280;15850;47.524;7.814;2022-08-11T07:52:19;97982.25;;;22.58;44.63
28665;BME280;15850;47.524;7.814;2022-08-11T07:54:45;97986.28;;;22.54;42.91
28665;BME280;15850;47.524;7.814;2022-08-11T07:57:11;97981.50;;;22.54;42.99
28665;BME280;15850;47.524;7.814;2022-08-11T07:59:37;97899.56;;;22.01;42.99
28665;BME280;15850;47.524;7.814;2022-08-11T08:02:03;97964.19;;;22.43;42.81
28665;BME280;15850;47.524;7.814;2022-08-11T08:04:28;97975.84;;;22.65;42.93
28665;BME280;15850;47.524;7.814;2022-08-11T08:06:55;97977.22;;;22.87;42.29
28665;BME280;15850;47.524;7.814;2022-08-11T08:09:23;97942.56;;;22.68;41.39
28665;BME280;15850;47.524;7.814;2022-08-11T08:11:49;97978.41;;;22.90;41.98
28665;BME280;15850;47.524;7.814;2022-08-11T08:14:16;97977.69;;;22.82;42.37
28665;BME280;15850;47.524;7.814;2022-08-11T08:16:42;97982.06;;;22.80;42.40
28665;BME280;15850;47.524;7.814;2022-08-11T08:19:10;97929.84;;;22.71;41.45
28665;BME280;15850;47.524;7.814;2022-08-11T08:21:37;97867.53;;;22.45;41.42
28665;BME280;15850;47.524;7.814;2022-08-11T08:24:05;97974.19;;;23.16;41.30
28665;BME280;15850;47.524;7.814;2022-08-11T08:26:32;97633.63;;;20.77;41.24
28665;BME280;15850;47.524;7.814;2022-08-11T08:29:02;97793.59;;;21.93;41.52
28665;BME280;15850;47.524;7.814;2022-08-11T08:31:29;97965.72;;;23.27;41.42
28665;BME280;15850;47.524;7.814;2022-08-11T08:33:55;97975.75;;;23.51;40.79
28665;BME280;15850;47.524;7.814;2022-08-11T08:36:21;97904.84;;;23.12;40.92
28665;BME280;15850;47.524;7.814;2022-08-11T08:38:49;97975.53;;;23.69;40.42
28665;BME280;15850;47.524;7.814;2022-08-11T08:41:27;97839.09;;;22.75;39.94
28665;BME280;15850;47.524;7.814;2022-08-11T08:43:57;97762.00;;;22.28;40.72
28665;BME280;15850;47.524;7.814;2022-08-11T08:46:27;97976.22;;;23.77;40.17
28665;BME280;15850;47.524;7.814;2022-08-11T08:48:59;97975.88;;;23.75;41.51
28665;BME280;15850;47.524;7.814;2022-08-11T08:51:26;97882.34;;;23.34;40.91
28665;BME280;15850;47.524;7.814;2022-08-11T08:53:53;97928.66;;;23.75;40.04
28665;BME280;15850;47.524;7.814;2022-08-11T08:56:26;97966.31;;;24.03;40.01
28665;BME280;15850;47.524;7.814;2022-08-11T08:58:52;97980.66;;;24.01;40.32
28665;BME280;15850;47.524;7.814;2022-08-11T09:01:20;97974.59;;;24.06;40.48
28665;BME280;15850;47.524;7.814;2022-08-11T09:03:47;97974.03;;;24.19;40.42
28665;BME280;15850;47.524;7.814;2022-08-11T09:06:14;97977.31;;;24.10;40.23
28665;BME280;15850;47.524;7.814;2022-08-11T09:08:40;97975.28;;;24.41;40.26
28665;BME280;15850;47.524;7.814;2022-08-11T09:11:07;97979.09;;;24.51;39.55
28665;BME280;15850;47.524;7.814;2022-08-11T09:13:35;97903.75;;;23.95;39.57
28665;BME280;15850;47.524;7.814;2022-08-11T09:16:01;97983.81;;;24.54;39.48
28665;BME280;15850;47.524;7.814;2022-08-11T09:18:28;97932.53;;;24.31;40.14
28665;BME280;15850;47.524;7.814;2022-08-11T09:20:54;97965.78;;;24.62;40.64
28665;BME280;15850;47.524;7.814;2022-08-11T09:23:21;97962.34;;;24.78;39.51
28665;BME280;15850;47.524;7.814;2022-08-11T09:25:49;97696.00;;;23.08;39.64
28665;BME280;15850;47.524;7.814;2022-08-11T09:28:16;97954.84;;;24.75;39.50
28665;BME280;15850;47.524;7.814;2022-08-11T09:30:44;97966.81;;;24.72;39.36
28665;BME280;15850;47.524;7.814;2022-08-11T09:33:14;97954.34;;;24.56;40.34
28665;BME280;15850;47.524;7.814;2022-08-11T09:35:42;97913.22;;;24.48;39.92
28665;BME280;15850;47.524;7.814;2022-08-11T09:38:11;97799.84;;;23.88;40.21
28665;BME280;15850;47.524;7.814;2022-08-11T09:40:38;97882.09;;;24.53;39.02
28665;BME280;15850;47.524;7.814;2022-08-11T09:43:09;97953.44;;;25.06;38.90
28665;BME280;15850;47.524;7.814;2022-08-11T09:45:36;97810.09;;;24.15;39.63
28665;BME280;15850;47.524;7.814;2022-08-11T09:48:03;97947.53;;;25.04;39.42
28665;BME280;15850;47.524;7.814;2022-08-11T09:50:29;97917.19;;;24.90;39.06
28665;BME280;15850;47.524;7.814;2022-08-11T09:52:56;97909.41;;;25.01;39.15
28665;BME280;15850;47.524;7.814;2022-08-11T09:55:23;97855.91;;;24.74;38.76
28665;BME280;15850;47.524;7.814;2022-08-11T09:57:49;97929.47;;;25.33;38.80
28665;BME280;15850;47.524;7.814;2022-08-11T10:00:15;97588.31;;;23.23;38.57
28665;BME280;15850;47.524;7.814;2022-08-11T10:02:43;97935.88;;;25.49;38.31
28665;BME280;15850;47.524;7.814;2022-08-11T10:05:10;97918.00;;;25.67;38.30
28665;BME280;15850;47.524;7.814;2022-08-11T10:07:39;97932.00;;;25.83;38.40
28665;BME280;15850;47.524;7.814;2022-08-11T10:10:08;97901.28;;;25.67;37.68
28665;BME280;15850;47.524;7.814;2022-08-11T10:12:36;97908.47;;;25.84;38.33
28665;BME280;15850;47.524;7.814;2022-08-11T10:15:08;97916.69;;;26.08;37.92
28665;BME280;15850;47.524;7.814;2022-08-11T10:17:38;97873.47;;;25.83;37.40
28665;BME280;15850;47.524;7.814;2022-08-11T10:20:08;97919.66;;;26.17;38.34
28665;BME280;15850;47.524;7.814;2022-08-11T10:22:35;97808.66;;;25.46;37.43
28665;BME280;15850;47.524;7.814;2022-08-11T10:25:02;97721.16;;;24.75;37.73
28665;BME280;15850;47.524;7.814;2022-08-11T10:27:29;97903.63;;;26.21;37.83
28665;BME280;15850;47.524;7.814;2022-08-11T10:29:55;97778.06;;;25.59;37.74
28665;BME280;15850;47.524;7.814;2022-08-11T10:32:24;97903.34;;;26.48;37.06
28665;BME280;15850;47.524;7.814;2022-08-11T10:34:50;97900.72;;;26.57;37.76
28665;BME280;15850;47.524;7.814;2022-08-11T10:37:19;97914.75;;;26.70;36.52
28665;BME280;15850;47.524;7.814;2022-08-11T10:39:45;97764.13;;;25.75;37.03
28665;BME280;15850;47.524;7.814;2022-08-11T10:42:12;97882.53;;;26.53;37.33
28665;BME280;15850;47.524;7.814;2022-08-11T10:44:50;97897.28;;;26.82;36.37
28665;BME280;15850;47.524;7.814;2022-08-11T10:47:17;97899.44;;;26.75;36.19
28665;BME280;15850;47.524;7.814;2022-08-11T10:49:43;97896.59;;;26.62;37.00
28665;BME280;15850;47.524;7.814;2022-08-11T10:52:09;97893.66;;;26.69;36.86
28665;BME280;15850;47.524;7.814;2022-08-11T10:54:35;97894.22;;;26.77;36.09
28665;BME280;15850;47.524;7.814;2022-08-11T10:57:03;97850.50;;;26.57;36.88
28665;BME280;15850;47.524;7.814;2022-08-11T10:59:32;97894.41;;;26.99;36.37
28665;BME280;15850;47.524;7.814;2022-08-11T11:02:00;97861.66;;;26.86;36.11
28665;BME280;15850;47.524;7.814;2022-08-11T11:04:32;97886.03;;;27.40;35.37
28665;BME280;15850;47.524;7.814;2022-08-11T11:07:05;97880.56;;;27.50;35.80
28665;BME280;15850;47.524;7.814;2022-08-11T11:09:36;97868.84;;;27.42;35.07
28665;BME280;15850;47.524;7.814;2022-08-11T11:12:09;97883.03;;;27.48;35.53
28665;BME280;15850;47.524;7.814;2022-08-11T11:14:36;97879.69;;;27.53;35.16
28665;BME280;15850;47.524;7.814;2022-08-11T11:17:08;97850.91;;;27.14;35.20
28665;BME280;15850;47.524;7.814;2022-08-11T11:19:37;97879.34;;;27.63;34.40
28665;BME280;15850;47.524;7.814;2022-08-11T11:22:05;97693.03;;;26.71;33.84
28665;BME280;15850;47.524;7.814;2022-08-11T11:24:39;97518.34;;;25.55;33.84
28665;BME280;15850;47.524;7.814;2022-08-11T11:27:15;97805.25;;;27.59;34.13
28665;BME280;15850;47.524;7.814;2022-08-11T11:29:55;97876.56;;;28.02;33.08
28665;BME280;15850;47.524;7.814;2022-08-11T11:32:31;97870.88;;;27.93;33.39
28665;BME280;15850;47.524;7.814;2022-08-11T11:35:15;97806.03;;;27.34;34.05
28665;BME280;15850;47.524;7.814;2022-08-11T11:37:44;97862.84;;;27.82;34.53
28665;BME280;15850;47.524;7.814;2022-08-11T11:40:12;97865.38;;;28.15;33.57
28665;BME280;15850;47.524;7.814;2022-08-11T11:42:41;97869.97;;;27.96;33.80
28665;BME280;15850;47.524;7.814;2022-08-11T11:45:09;97827.41;;;27.79;32.45
28665;BME280;15850;47.524;7.814;2022-08-11T11:47:37;97870.34;;;28.32;32.46
28665;BME280;15850;47.524;7.814;2022-08-11T11:50:04;97729.22;;;27.64;32.46
28665;BME280;15850;47.524;7.814;2022-08-11T11:52:32;97859.94;;;28.46;31.82
28665;BME280;15850;47.524;7.814;2022-08-11T11:54:58;97856.09;;;28.05;31.45
28665;BME280;15850;47.524;7.814;2022-08-11T11:57:24;97838.91;;;27.55;33.43
28665;BME280;15850;47.524;7.814;2022-08-11T11:59:52;97490.25;;;26.04;33.08
28665;BME280;15850;47.524;7.814;2022-08-11T12:02:18;97833.38;;;28.72;32.28
28665;BME280;15850;47.524;7.814;2022-08-11T12:04:46;97781.69;;;28.42;31.87
28665;BME280;15850;47.524;7.814;2022-08-11T12:07:12;97833.91;;;28.80;32.25
28665;BME280;15850;47.524;7.814;2022-08-11T12:09:38;97829.22;;;28.55;33.52
28665;BME280;15850;47.524;7.814;2022-08-11T12:12:05;97831.28;;;28.42;33.85
28665;BME280;15850;47.524;7.814;2022-08-11T12:14:31;97745.56;;;28.00;32.58
28665;BME280;15850;47.524;7.814;2022-08-11T12:16:57;97825.75;;;28.51;31.63
28665;BME280;15850;47.524;7.814;2022-08-11T12:19:24;97818.38;;;28.44;33.26
28665;BME280;15850;47.524;7.814;2022-08-11T12:21:53;97827.41;;;28.83;32.85
28665;BME280;15850;47.524;7.814;2022-08-11T12:24:19;97812.69;;;28.92;32.56
28665;BME280;15850;47.524;7.814;2022-08-11T12:26:46;97743.69;;;28.54;32.32
28665;BME280;15850;47.524;7.814;2022-08-11T12:29:12;97808.78;;;29.11;31.62
28665;BME280;15850;47.524;7.814;2022-08-11T12:31:39;97707.41;;;28.72;31.31
28665;BME280;15850;47.524;7.814;2022-08-11T12:34:07;97805.38;;;29.47;31.46
28665;BME280;15850;47.524;7.814;2022-08-11T12:36:35;97796.28;;;29.43;31.41
28665;BME280;15850;47.524;7.814;2022-08-11T12:39:05;97540.19;;;27.92;31.39
28665;BME280;15850;47.524;7.814;2022-08-11T12:41:32;97792.63;;;29.56;30.29
28665;BME280;15850;47.524;7.814;2022-08-11T12:43:59;97762.81;;;29.40;29.93
28665;BME280;15850;47.524;7.814;2022-08-11T12:46:29;97633.06;;;28.40;30.19
28665;BME280;15850;47.524;7.814;2022-08-11T12:48:57;97772.91;;;29.28;33.31
28665;BME280;15850;47.524;7.814;2022-08-11T12:51:24;97778.03;;;29.70;30.57
28665;BME280;15850;47.524;7.814;2022-08-11T12:53:54;97673.13;;;29.31;30.88
28665;BME280;15850;47.524;7.814;2022-08-11T12:56:21;97773.56;;;30.09;30.11
28665;BME280;15850;47.524;7.814;2022-08-11T12:58:48;97582.91;;;28.95;30.37
28665;BME280;15850;47.524;7.814;2022-08-11T13:01:16;97563.31;;;28.95;29.68
28665;BME280;15850;47.524;7.814;2022-08-11T13:03:41;97389.34;;;27.89;30.29
28665;BME280;15850;47.524;7.814;2022-08-11T13:06:07;97615.91;;;29.68;29.58
28665;BME280;15850;47.524;7.814;2022-08-11T13:08:36;97727.31;;;30.41;28.93
28665;BME280;15850;47.524;7.814;2022-08-11T13:11:02;97742.28;;;30.29;29.34
28665;BME280;15850;47.524;7.814;2022-08-11T13:13:30;97654.84;;;29.85;28.99
28665;BME280;15850;47.524;7.814;2022-08-11T13:15:57;97742.88;;;30.52;28.56
28665;BME280;15850;47.524;7.814;2022-08-11T13:18:22;97754.25;;;30.66;29.85
28665;BME280;15850;47.524;7.814;2022-08-11T13:20:51;97704.19;;;30.56;29.14
28665;BME280;15850;47.524;7.814;2022-08-11T13:23:18;97707.16;;;30.80;28.29
28665;BME280;15850;47.524;7.814;2022-08-11T13:25:44;97742.28;;;31.08;28.08
28665;BME280;15850;47.524;7.814;2022-08-11T13:28:10;97732.34;;;31.41;28.68
28665;BME280;15850;47.524;7.814;2022-08-11T13:30:38;97739.81;;;32.40;27.59
28665;BME280;15850;47.524;7.814;2022-08-11T13:33:04;97728.84;;;33.66;25.88
28665;BME280;15850;47.524;7.814;2022-08-11T13:35:30;97730.06;;;34.21;25.08
28665;BME280;15850;47.524;7.814;2022-08-11T13:37:57;97732.50;;;34.54;24.67
28665;BME280;15850;47.524;7.814;2022-08-11T13:40:23;97651.81;;;35.11;22.67
28665;BME280;15850;47.524;7.814;2022-08-11T13:42:50;97437.91;;;34.48;21.98
28665;BME280;15850;47.524;7.814;2022-08-11T13:45:17;97366.44;;;33.93;23.11
28665;BME280;15850;47.524;7.814;2022-08-11T13:47:45;97707.31;;;35.51;22.95
28665;BME280;15850;47.524;7.814;2022-08-11T13:50:11;97585.56;;;34.22;23.58
28665;BME280;15850;47.524;7.814;2022-08-11T13:52:40;97702.13;;;35.92;22.81
28665;BME280;15850;47.524;7.814;2022-08-11T13:55:15;97650.28;;;35.58;22.17
28665;BME280;15850;47.524;7.814;2022-08-11T13:57:41;97700.31;;;36.83;21.51
28665;BME280;15850;47.524;7.814;2022-08-11T14:00:08;97592.56;;;37.75;20.79
28665;BME280;15850;47.524;7.814;2022-08-11T14:02:40;97687.63;;;39.47;19.29
28665;BME280;15850;47.524;7.814;2022-08-11T14:05:11;97680.50;;;37.97;20.95
28665;BME280;15850;47.524;7.814;2022-08-11T14:07:42;97484.28;;;37.59;20.46
28665;BME280;15850;47.524;7.814;2022-08-11T14:10:17;97684.28;;;37.25;21.64